sensor_id;sensor_type;location;lat;lon;timestamp;P1;durP1;ratioP1;P2;durP2;ratioP2
10471;SDS011;5283;48.876;8.962;2024-02-23T00:01:00;1.40;;;0.37;;
10471;SDS011;5283;48.876;8.962;2024-02-23T00:03:26;4.33;;;0.50;;
10471;SDS011;5283;48.876;8.962;2024-02-23T00:05:53;0.63;;;0.20;;
10471;SDS011;5283;48.876;8.962;2024-02-23T00:08:20;0.70;;;0.30;;
10471;SDS011;5283;48.876;8.962;2024-02-23T00:10:47;1.80;;;0.70;;
10471;SDS011;5283;48.876;8.962;2024-02-23T00:13:13;2.87;;;0.70;;
10471;SDS011;5283;48.876;8.962;2024-02-23T00:15:40;2.67;;;0.60;;
10471;SDS011;5283;48.876;8.962;2024-02-23T00:18:07;3.03;;;0.60;;
10471;SDS011;5283;48.876;8.962;2024-02-23T00:20:34;3.80;;;1.13;;
10471;SDS011;5283;48.876;8.962;2024-02-23T00:23:01;2.57;;;0.83;;
10471;SDS011;5283;48.876;8.962;2024-02-23T00:25:28;3.50;;;0.53;;
10471;SDS011;5283;48.876;8.962;2024-02-23T00:27:55;3.80;;;0.80;;
10471;SDS011;5283;48.876;8.962;2024-02-23T00:30:22;3.40;;;0.73;;
10471;SDS011;5283;48.876;8.962;2024-02-23T00:32:49;2.23;;;0.80;;
10471;SDS011;5283;48.876;8.962;2024-02-23T00:35:15;4.47;;;1.20;;
10471;SDS011;5283;48.876;8.962;2024-02-23T00:37:42;3.07;;;0.90;;
10471;SDS011;5283;48.876;8.962;2024-02-23T00:40:09;3.60;;;1.23;;
10471;SDS011;5283;48.876;8.962;2024-02-23T00:42:36;2.67;;;0.80;;
10471;SDS011;5283;48.876;8.962;2024-02-23T00:45:04;3.53;;;0.97;;
10471;SDS011;5283;48.876;8.962;2024-02-23T00:47:31;3.07;;;0.70;;
10471;SDS011;5283;48.876;8.962;2024-02-23T00:49:58;2.57;;;0.83;;
10471;SDS011;5283;48.876;8.962;2024-02-23T00:52:25;5.17;;;1.23;;
10471;SDS011;5283;48.876;8.962;2024-02-23T00:54:51;5.10;;;0.97;;
10471;SDS011;5283;48.876;8.962;2024-02-23T00:57:18;1.97;;;0.60;;
10471;SDS011;5283;48.876;8.962;2024-02-23T00:59:52;1.83;;;0.60;;
10471;SDS011;5283;48.876;8.962;2024-02-23T01:02:19;2.63;;;0.80;;
10471;SDS011;5283;48.876;8.962;2024-02-23T01:04:46;2.30;;;0.63;;
10471;SDS011;5283;48.876;8.962;2024-02-23T01:07:13;3.23;;;0.90;;
10471;SDS011;5283;48.876;8.962;2024-02-23T01:09:40;2.77;;;1.10;;
10471;SDS011;5283;48.876;8.962;2024-02-23T01:12:06;3.33;;;1.07;;
10471;SDS011;5283;48.876;8.962;2024-02-23T01:14:33;4.57;;;0.90;;
10471;SDS011;5283;48.876;8.962;2024-02-23T01:17:00;4.00;;;1.10;;
10471;SDS011;5283;48.876;8.962;2024-02-23T01:19:27;2.10;;;0.67;;
10471;SDS011;5283;48.876;8.962;2024-02-23T01:21:54;1.97;;;1.00;;
10471;SDS011;5283;48.876;8.962;2024-02-23T01:24:28;2.93;;;0.93;;
10471;SDS011;5283;48.876;8.962;2024-02-23T01:26:55;2.10;;;0.77;;
10471;SDS011;5283;48.876;8.962;2024-02-23T01:29:25;2.37;;;0.77;;
10471;SDS011;5283;48.876;8.962;2024-02-23T01:31:52;1.50;;;0.70;;
10471;SDS011;5283;48.876;8.962;2024-02-23T01:34:20;4.67;;;0.80;;
10471;SDS011;5283;48.876;8.962;2024-02-23T01:36:48;3.40;;;0.73;;
10471;SDS011;5283;48.876;8.962;2024-02-23T01:39:15;4.67;;;0.73;;
10471;SDS011;5283;48.876;8.962;2024-02-23T01:41:41;1.00;;;0.47;;
10471;SDS011;5283;48.876;8.962;2024-02-23T01:44:10;1.93;;;0.77;;
10471;SDS011;5283;48.876;8.962;2024-02-23T01:46:37;2.20;;;0.60;;
10471;SDS011;5283;48.876;8.962;2024-02-23T01:49:05;2.73;;;0.60;;
10471;SDS011;5283;48.876;8.962;2024-02-23T01:51:34;2.50;;;0.50;;
10471;SDS011;5283;48.876;8.962;2024-02-23T01:54:01;1.80;;;0.70;;
10471;SDS011;5283;48.876;8.962;2024-02-23T01:56:29;2.87;;;0.67;;
10471;SDS011;5283;48.876;8.962;2024-02-23T01:58:58;3.03;;;0.70;;
10471;SDS011;5283;48.876;8.962;2024-02-23T02:01:29;1.73;;;0.73;;
10471;SDS011;5283;48.876;8.962;2024-02-23T02:03:57;1.57;;;0.60;;
10471;SDS011;5283;48.876;8.962;2024-02-23T02:06:24;1.33;;;0.40;;
10471;SDS011;5283;48.876;8.962;2024-02-23T02:08:51;0.87;;;0.30;;
10471;SDS011;5283;48.876;8.962;2024-02-23T02:11:18;0.40;;;0.30;;
10471;SDS011;5283;48.876;8.962;2024-02-23T02:13:45;1.30;;;0.53;;
10471;SDS011;5283;48.876;8.962;2024-02-23T02:16:12;1.40;;;0.27;;
10471;SDS011;5283;48.876;8.962;2024-02-23T02:18:40;0.60;;;0.50;;
10471;SDS011;5283;48.876;8.962;2024-02-23T02:21:06;2.77;;;0.70;;
10471;SDS011;5283;48.876;8.962;2024-02-23T02:23:33;1.27;;;0.53;;
10471;SDS011;5283;48.876;8.962;2024-02-23T02:26:00;2.23;;;0.80;;
10471;SDS011;5283;48.876;8.962;2024-02-23T02:28:27;2.97;;;0.70;;
10471;SDS011;5283;48.876;8.962;2024-02-23T02:30:54;1.03;;;0.40;;
10471;SDS011;5283;48.876;8.962;2024-02-23T02:33:21;1.70;;;1.00;;
10471;SDS011;5283;48.876;8.962;2024-02-23T02:35:48;2.40;;;0.77;;
10471;SDS011;5283;48.876;8.962;2024-02-23T02:38:16;1.80;;;0.67;;
10471;SDS011;5283;48.876;8.962;2024-02-23T02:40:42;3.40;;;0.80;;
10471;SDS011;5283;48.876;8.962;2024-02-23T02:43:09;3.10;;;0.53;;
10471;SDS011;5283;48.876;8.962;2024-02-23T02:45:37;1.03;;;0.53;;
10471;SDS011;5283;48.876;8.962;2024-02-23T02:48:04;3.00;;;0.40;;
10471;SDS011;5283;48.876;8.962;2024-02-23T02:50:31;3.13;;;0.60;;
10471;SDS011;5283;48.876;8.962;2024-02-23T02:52:58;1.07;;;0.60;;
10471;SDS011;5283;48.876;8.962;2024-02-23T02:55:24;1.63;;;0.40;;
10471;SDS011;5283;48.876;8.962;2024-02-23T02:57:51;1.90;;;0.40;;
10471;SDS011;5283;48.876;8.962;2024-02-23T03:00:18;3.30;;;0.67;;
10471;SDS011;5283;48.876;8.962;2024-02-23T03:02:44;3.83;;;0.77;;
10471;SDS011;5283;48.876;8.962;2024-02-23T03:05:11;3.07;;;0.53;;
10471;SDS011;5283;48.876;8.962;2024-02-23T03:07:38;1.67;;;0.40;;
10471;SDS011;5283;48.876;8.962;2024-02-23T03:10:05;4.10;;;0.90;;
10471;SDS011;5283;48.876;8.962;2024-02-23T03:12:32;3.90;;;0.40;;
10471;SDS011;5283;48.876;8.962;2024-02-23T03:14:59;1.27;;;0.40;;
10471;SDS011;5283;48.876;8.962;2024-02-23T03:17:26;2.10;;;0.60;;
10471;SDS011;5283;48.876;8.962;2024-02-23T03:19:52;0.90;;;0.50;;
10471;SDS011;5283;48.876;8.962;2024-02-23T03:22:19;1.27;;;0.60;;
10471;SDS011;5283;48.876;8.962;2024-02-23T03:24:46;0.40;;;0.30;;
10471;SDS011;5283;48.876;8.962;2024-02-23T03:27:13;1.70;;;0.50;;
10471;SDS011;5283;48.876;8.962;2024-02-23T03:29:39;1.60;;;0.80;;
10471;SDS011;5283;48.876;8.962;2024-02-23T03:32:07;1.30;;;0.60;;
10471;SDS011;5283;48.876;8.962;2024-02-23T03:34:33;1.53;;;0.60;;
10471;SDS011;5283;48.876;8.962;2024-02-23T03:37:01;0.77;;;0.40;;
10471;SDS011;5283;48.876;8.962;2024-02-23T03:39:29;1.37;;;0.37;;
10471;SDS011;5283;48.876;8.962;2024-02-23T03:41:55;1.03;;;0.50;;
10471;SDS011;5283;48.876;8.962;2024-02-23T03:44:22;1.70;;;0.60;;
10471;SDS011;5283;48.876;8.962;2024-02-23T03:46:49;1.90;;;0.50;;
10471;SDS011;5283;48.876;8.962;2024-02-23T03:49:16;2.97;;;0.53;;
10471;SDS011;5283;48.876;8.962;2024-02-23T03:51:43;1.37;;;0.60;;
10471;SDS011;5283;48.876;8.962;2024-02-23T03:54:09;3.13;;;0.50;;
10471;SDS011;5283;48.876;8.962;2024-02-23T03:56:40;3.10;;;0.60;;
10471;SDS011;5283;48.876;8.962;2024-02-23T03:59:07;1.37;;;0.40;;
10471;SDS011;5283;48.876;8.962;2024-02-23T04:01:37;2.87;;;0.47;;
10471;SDS011;5283;48.876;8.962;2024-02-23T04:04:05;1.70;;;0.40;;
10471;SDS011;5283;48.876;8.962;2024-02-23T04:06:33;2.30;;;0.60;;
10471;SDS011;5283;48.876;8.962;2024-02-23T04:09:00;2.10;;;0.40;;
10471;SDS011;5283;48.876;8.962;2024-02-23T04:11:27;1.60;;;0.57;;
10471;SDS011;5283;48.876;8.962;2024-02-23T04:13:54;1.83;;;0.50;;
10471;SDS011;5283;48.876;8.962;2024-02-23T04:16:23;1.50;;;0.70;;
10471;SDS011;5283;48.876;8.962;2024-02-23T04:18:53;3.70;;;0.47;;
10471;SDS011;5283;48.876;8.962;2024-02-23T04:21:20;1.33;;;0.73;;
10471;SDS011;5283;48.876;8.962;2024-02-23T04:23:47;1.50;;;0.53;;
10471;SDS011;5283;48.876;8.962;2024-02-23T04:26:14;1.90;;;0.70;;
10471;SDS011;5283;48.876;8.962;2024-02-23T04:28:41;2.63;;;0.63;;
10471;SDS011;5283;48.876;8.962;2024-02-23T04:31:08;1.27;;;0.70;;
10471;SDS011;5283;48.876;8.962;2024-02-23T04:33:36;1.83;;;0.50;;
10471;SDS011;5283;48.876;8.962;2024-02-23T04:36:03;1.10;;;0.50;;
10471;SDS011;5283;48.876;8.962;2024-02-23T04:38:31;4.13;;;0.90;;
10471;SDS011;5283;48.876;8.962;2024-02-23T04:40:58;4.63;;;0.73;;
10471;SDS011;5283;48.876;8.962;2024-02-23T04:43:28;1.27;;;0.30;;
10471;SDS011;5283;48.876;8.962;2024-02-23T04:45:55;1.33;;;0.53;;
10471;SDS011;5283;48.876;8.962;2024-02-23T04:48:21;1.87;;;0.40;;
10471;SDS011;5283;48.876;8.962;2024-02-23T04:50:48;2.17;;;0.60;;
10471;SDS011;5283;48.876;8.962;2024-02-23T04:53:15;1.83;;;0.53;;
10471;SDS011;5283;48.876;8.962;2024-02-23T04:55:42;1.50;;;0.60;;
10471;SDS011;5283;48.876;8.962;2024-02-23T04:58:09;3.40;;;0.50;;
10471;SDS011;5283;48.876;8.962;2024-02-23T05:00:38;1.80;;;0.40;;
10471;SDS011;5283;48.876;8.962;2024-02-23T05:03:05;3.50;;;0.80;;
10471;SDS011;5283;48.876;8.962;2024-02-23T05:05:35;3.57;;;0.77;;
10471;SDS011;5283;48.876;8.962;2024-02-23T05:08:02;1.80;;;0.50;;
10471;SDS011;5283;48.876;8.962;2024-02-23T05:10:29;0.67;;;0.33;;
10471;SDS011;5283;48.876;8.962;2024-02-23T05:12:56;1.70;;;0.50;;
10471;SDS011;5283;48.876;8.962;2024-02-23T05:15:22;0.13;;;0.13;;
10471;SDS011;5283;48.876;8.962;2024-02-23T05:17:49;3.17;;;0.50;;
10471;SDS011;5283;48.876;8.962;2024-02-23T05:20:16;2.07;;;0.50;;
10471;SDS011;5283;48.876;8.962;2024-02-23T05:22:43;1.20;;;0.33;;
10471;SDS011;5283;48.876;8.962;2024-02-23T05:25:10;0.97;;;0.57;;
10471;SDS011;5283;48.876;8.962;2024-02-23T05:27:36;0.50;;;0.37;;
10471;SDS011;5283;48.876;8.962;2024-02-23T05:30:03;2.60;;;0.60;;
10471;SDS011;5283;48.876;8.962;2024-02-23T05:32:30;1.17;;;0.40;;
10471;SDS011;5283;48.876;8.962;2024-02-23T05:34:57;2.20;;;0.43;;
10471;SDS011;5283;48.876;8.962;2024-02-23T05:37:24;2.87;;;0.90;;
10471;SDS011;5283;48.876;8.962;2024-02-23T05:39:51;3.13;;;0.40;;
10471;SDS011;5283;48.876;8.962;2024-02-23T05:42:17;4.07;;;0.90;;
10471;SDS011;5283;48.876;8.962;2024-02-23T05:44:44;1.50;;;0.40;;
10471;SDS011;5283;48.876;8.962;2024-02-23T05:47:11;3.50;;;0.80;;
10471;SDS011;5283;48.876;8.962;2024-02-23T05:49:40;1.20;;;0.40;;
10471;SDS011;5283;48.876;8.962;2024-02-23T05:52:07;0.60;;;0.33;;
10471;SDS011;5283;48.876;8.962;2024-02-23T05:54:34;1.00;;;0.90;;
10471;SDS011;5283;48.876;8.962;2024-02-23T05:57:01;1.43;;;0.50;;
10471;SDS011;5283;48.876;8.962;2024-02-23T05:59:29;2.23;;;0.40;;
10471;SDS011;5283;48.876;8.962;2024-02-23T06:01:55;3.27;;;0.80;;
10471;SDS011;5283;48.876;8.962;2024-02-23T06:04:25;2.63;;;0.47;;
10471;SDS011;5283;48.876;8.962;2024-02-23T06:06:53;2.50;;;0.60;;
10471;SDS011;5283;48.876;8.962;2024-02-23T06:09:20;3.73;;;0.60;;
10471;SDS011;5283;48.876;8.962;2024-02-23T06:11:47;2.70;;;0.47;;
10471;SDS011;5283;48.876;8.962;2024-02-23T06:14:14;1.33;;;0.57;;
10471;SDS011;5283;48.876;8.962;2024-02-23T06:16:41;4.00;;;0.63;;
10471;SDS011;5283;48.876;8.962;2024-02-23T06:19:08;1.80;;;0.50;;
10471;SDS011;5283;48.876;8.962;2024-02-23T06:21:35;0.97;;;0.60;;
10471;SDS011;5283;48.876;8.962;2024-02-23T06:24:02;1.67;;;0.50;;
10471;SDS011;5283;48.876;8.962;2024-02-23T06:26:29;1.00;;;0.40;;
10471;SDS011;5283;48.876;8.962;2024-02-23T06:28:56;3.70;;;0.63;;
10471;SDS011;5283;48.876;8.962;2024-02-23T06:31:22;1.23;;;0.50;;
10471;SDS011;5283;48.876;8.962;2024-02-23T06:33:49;1.73;;;0.50;;
10471;SDS011;5283;48.876;8.962;2024-02-23T06:36:18;2.00;;;0.53;;
10471;SDS011;5283;48.876;8.962;2024-02-23T06:38:44;2.77;;;0.63;;
10471;SDS011;5283;48.876;8.962;2024-02-23T06:41:11;3.23;;;0.40;;
10471;SDS011;5283;48.876;8.962;2024-02-23T06:43:39;2.40;;;0.43;;
10471;SDS011;5283;48.876;8.962;2024-02-23T06:46:06;3.83;;;0.50;;
10471;SDS011;5283;48.876;8.962;2024-02-23T06:48:34;2.20;;;0.40;;
10471;SDS011;5283;48.876;8.962;2024-02-23T06:51:03;4.23;;;1.13;;
10471;SDS011;5283;48.876;8.962;2024-02-23T06:53:31;2.87;;;0.80;;
10471;SDS011;5283;48.876;8.962;2024-02-23T06:55:57;0.67;;;0.60;;
10471;SDS011;5283;48.876;8.962;2024-02-23T06:58:25;1.43;;;0.50;;
10471;SDS011;5283;48.876;8.962;2024-02-23T07:00:52;1.70;;;0.70;;
10471;SDS011;5283;48.876;8.962;2024-02-23T07:03:18;3.50;;;0.80;;
10471;SDS011;5283;48.876;8.962;2024-02-23T07:05:45;2.17;;;0.60;;
10471;SDS011;5283;48.876;8.962;2024-02-23T07:08:13;1.97;;;0.57;;
10471;SDS011;5283;48.876;8.962;2024-02-23T07:10:40;0.50;;;0.50;;
10471;SDS011;5283;48.876;8.962;2024-02-23T07:13:07;2.07;;;0.70;;
10471;SDS011;5283;48.876;8.962;2024-02-23T07:15:34;1.33;;;0.60;;
10471;SDS011;5283;48.876;8.962;2024-02-23T07:18:02;2.93;;;0.50;;
10471;SDS011;5283;48.876;8.962;2024-02-23T07:20:29;2.33;;;1.00;;
10471;SDS011;5283;48.876;8.962;2024-02-23T07:22:55;0.80;;;0.50;;
10471;SDS011;5283;48.876;8.962;2024-02-23T07:25:22;1.77;;;0.60;;
10471;SDS011;5283;48.876;8.962;2024-02-23T07:27:49;1.87;;;0.80;;
10471;SDS011;5283;48.876;8.962;2024-02-23T07:30:17;2.67;;;0.73;;
10471;SDS011;5283;48.876;8.962;2024-02-23T07:32:44;0.83;;;0.47;;
10471;SDS011;5283;48.876;8.962;2024-02-23T07:35:13;2.47;;;0.60;;
10471;SDS011;5283;48.876;8.962;2024-02-23T07:37:40;1.80;;;0.70;;
10471;SDS011;5283;48.876;8.962;2024-02-23T07:40:07;2.93;;;0.60;;
10471;SDS011;5283;48.876;8.962;2024-02-23T07:42:34;3.90;;;0.70;;
10471;SDS011;5283;48.876;8.962;2024-02-23T07:45:04;3.17;;;0.50;;
10471;SDS011;5283;48.876;8.962;2024-02-23T07:47:32;1.90;;;0.60;;
10471;SDS011;5283;48.876;8.962;2024-02-23T07:49:59;1.30;;;0.60;;
10471;SDS011;5283;48.876;8.962;2024-02-23T07:52:26;1.90;;;0.70;;
10471;SDS011;5283;48.876;8.962;2024-02-23T07:54:53;2.40;;;0.80;;
10471;SDS011;5283;48.876;8.962;2024-02-23T07:57:20;2.37;;;0.80;;
10471;SDS011;5283;48.876;8.962;2024-02-23T07:59:47;1.23;;;0.73;;
10471;SDS011;5283;48.876;8.962;2024-02-23T08:02:14;0.63;;;0.57;;
10471;SDS011;5283;48.876;8.962;2024-02-23T08:04:41;1.10;;;0.50;;
10471;SDS011;5283;48.876;8.962;2024-02-23T08:07:13;0.87;;;0.83;;
10471;SDS011;5283;48.876;8.962;2024-02-23T08:09:41;0.80;;;0.57;;
10471;SDS011;5283;48.876;8.962;2024-02-23T08:12:08;7.60;;;1.10;;
10471;SDS011;5283;48.876;8.962;2024-02-23T08:14:35;1.53;;;0.60;;
10471;SDS011;5283;48.876;8.962;2024-02-23T08:17:01;1.03;;;0.80;;
10471;SDS011;5283;48.876;8.962;2024-02-23T08:19:28;1.17;;;0.77;;
10471;SDS011;5283;48.876;8.962;2024-02-23T08:21:55;2.80;;;0.77;;
10471;SDS011;5283;48.876;8.962;2024-02-23T08:24:23;2.20;;;0.63;;
10471;SDS011;5283;48.876;8.962;2024-02-23T08:26:52;1.37;;;0.80;;
10471;SDS011;5283;48.876;8.962;2024-02-23T08:29:19;2.70;;;0.70;;
10471;SDS011;5283;48.876;8.962;2024-02-23T08:31:46;2.30;;;0.97;;
10471;SDS011;5283;48.876;8.962;2024-02-23T08:34:13;2.67;;;0.73;;
10471;SDS011;5283;48.876;8.962;2024-02-23T08:36:41;1.93;;;0.97;;
10471;SDS011;5283;48.876;8.962;2024-02-23T08:39:07;1.23;;;0.70;;
10471;SDS011;5283;48.876;8.962;2024-02-23T08:41:35;2.03;;;0.57;;
10471;SDS011;5283;48.876;8.962;2024-02-23T08:44:02;1.27;;;0.67;;
10471;SDS011;5283;48.876;8.962;2024-02-23T08:46:28;1.47;;;0.90;;
10471;SDS011;5283;48.876;8.962;2024-02-23T08:48:55;2.80;;;0.90;;
10471;SDS011;5283;48.876;8.962;2024-02-23T08:51:22;2.93;;;0.80;;
10471;SDS011;5283;48.876;8.962;2024-02-23T08:53:49;1.33;;;0.60;;
10471;SDS011;5283;48.876;8.962;2024-02-23T08:56:15;2.30;;;0.93;;
10471;SDS011;5283;48.876;8.962;2024-02-23T08:58:42;3.93;;;0.90;;
10471;SDS011;5283;48.876;8.962;2024-02-23T09:01:09;4.13;;;1.50;;
10471;SDS011;5283;48.876;8.962;2024-02-23T09:03:36;1.50;;;0.63;;
10471;SDS011;5283;48.876;8.962;2024-02-23T09:06:02;3.00;;;0.90;;
10471;SDS011;5283;48.876;8.962;2024-02-23T09:08:30;1.90;;;1.00;;
10471;SDS011;5283;48.876;8.962;2024-02-23T09:10:56;1.60;;;0.80;;
10471;SDS011;5283;48.876;8.962;2024-02-23T09:13:24;3.47;;;1.10;;
10471;SDS011;5283;48.876;8.962;2024-02-23T09:15:52;3.87;;;2.93;;
10471;SDS011;5283;48.876;8.962;2024-02-23T09:18:19;2.60;;;1.43;;
10471;SDS011;5283;48.876;8.962;2024-02-23T09:20:46;4.77;;;1.07;;
10471;SDS011;5283;48.876;8.962;2024-02-23T09:23:13;2.50;;;1.00;;
10471;SDS011;5283;48.876;8.962;2024-02-23T09:25:40;2.63;;;0.93;;
10471;SDS011;5283;48.876;8.962;2024-02-23T09:28:09;2.83;;;1.60;;
10471;SDS011;5283;48.876;8.962;2024-02-23T09:30:37;1.90;;;1.20;;
10471;SDS011;5283;48.876;8.962;2024-02-23T09:33:04;2.30;;;1.00;;
10471;SDS011;5283;48.876;8.962;2024-02-23T09:35:31;5.87;;;1.37;;
10471;SDS011;5283;48.876;8.962;2024-02-23T09:37:58;5.07;;;1.27;;
10471;SDS011;5283;48.876;8.962;2024-02-23T09:40:25;5.83;;;1.30;;
10471;SDS011;5283;48.876;8.962;2024-02-23T09:42:56;4.47;;;0.80;;
10471;SDS011;5283;48.876;8.962;2024-02-23T09:45:25;1.43;;;0.60;;
10471;SDS011;5283;48.876;8.962;2024-02-23T09:47:54;4.33;;;0.87;;
10471;SDS011;5283;48.876;8.962;2024-02-23T09:50:23;7.07;;;1.20;;
10471;SDS011;5283;48.876;8.962;2024-02-23T09:52:51;3.37;;;0.93;;
10471;SDS011;5283;48.876;8.962;2024-02-23T09:55:18;5.50;;;1.00;;
10471;SDS011;5283;48.876;8.962;2024-02-23T09:57:47;2.93;;;0.90;;
10471;SDS011;5283;48.876;8.962;2024-02-23T10:00:17;4.10;;;1.30;;
10471;SDS011;5283;48.876;8.962;2024-02-23T10:02:44;3.20;;;1.10;;
10471;SDS011;5283;48.876;8.962;2024-02-23T10:05:11;4.43;;;1.33;;
10471;SDS011;5283;48.876;8.962;2024-02-23T10:07:40;2.20;;;0.87;;
10471;SDS011;5283;48.876;8.962;2024-02-23T10:10:07;3.90;;;1.10;;
10471;SDS011;5283;48.876;8.962;2024-02-23T10:12:35;4.37;;;1.00;;
10471;SDS011;5283;48.876;8.962;2024-02-23T10:15:02;3.30;;;0.80;;
10471;SDS011;5283;48.876;8.962;2024-02-23T10:17:32;4.93;;;1.07;;
10471;SDS011;5283;48.876;8.962;2024-02-23T10:20:01;2.87;;;1.20;;
10471;SDS011;5283;48.876;8.962;2024-02-23T10:22:30;2.67;;;1.10;;
10471;SDS011;5283;48.876;8.962;2024-02-23T10:24:57;3.40;;;1.30;;
10471;SDS011;5283;48.876;8.962;2024-02-23T10:27:25;3.07;;;1.13;;
10471;SDS011;5283;48.876;8.962;2024-02-23T10:29:52;4.50;;;1.13;;
10471;SDS011;5283;48.876;8.962;2024-02-23T10:32:20;4.17;;;1.37;;
10471;SDS011;5283;48.876;8.962;2024-02-23T10:34:48;3.53;;;0.70;;
10471;SDS011;5283;48.876;8.962;2024-02-23T10:37:18;2.00;;;0.80;;
10471;SDS011;5283;48.876;8.962;2024-02-23T10:39:44;3.60;;;1.27;;
10471;SDS011;5283;48.876;8.962;2024-02-23T10:42:12;4.73;;;1.53;;
10471;SDS011;5283;48.876;8.962;2024-02-23T10:44:40;2.23;;;1.00;;
10471;SDS011;5283;48.876;8.962;2024-02-23T10:47:07;4.60;;;1.17;;
10471;SDS011;5283;48.876;8.962;2024-02-23T10:49:34;3.33;;;1.10;;
10471;SDS011;5283;48.876;8.962;2024-02-23T10:52:02;3.77;;;0.80;;
10471;SDS011;5283;48.876;8.962;2024-02-23T10:54:31;2.83;;;1.13;;
10471;SDS011;5283;48.876;8.962;2024-02-23T10:56:59;4.50;;;1.27;;
10471;SDS011;5283;48.876;8.962;2024-02-23T10:59:26;2.47;;;0.90;;
10471;SDS011;5283;48.876;8.962;2024-02-23T11:01:53;3.10;;;1.03;;
10471;SDS011;5283;48.876;8.962;2024-02-23T11:04:23;1.90;;;0.70;;
10471;SDS011;5283;48.876;8.962;2024-02-23T11:06:52;3.60;;;1.13;;
10471;SDS011;5283;48.876;8.962;2024-02-23T11:09:23;2.40;;;0.83;;
10471;SDS011;5283;48.876;8.962;2024-02-23T11:11:54;5.03;;;1.40;;
10471;SDS011;5283;48.876;8.962;2024-02-23T11:14:31;3.00;;;0.80;;
10471;SDS011;5283;48.876;8.962;2024-02-23T11:17:02;2.50;;;0.90;;
10471;SDS011;5283;48.876;8.962;2024-02-23T11:19:33;4.17;;;0.90;;
10471;SDS011;5283;48.876;8.962;2024-02-23T11:22:04;2.97;;;1.30;;
10471;SDS011;5283;48.876;8.962;2024-02-23T11:24:41;4.73;;;1.30;;
10471;SDS011;5283;48.876;8.962;2024-02-23T11:27:13;1.60;;;0.87;;
10471;SDS011;5283;48.876;8.962;2024-02-23T11:29:43;4.77;;;1.33;;
10471;SDS011;5283;48.876;8.962;2024-02-23T11:32:12;5.10;;;1.37;;
10471;SDS011;5283;48.876;8.962;2024-02-23T11:34:56;1.97;;;0.87;;
10471;SDS011;5283;48.876;8.962;2024-02-23T11:37:23;3.60;;;1.10;;
10471;SDS011;5283;48.876;8.962;2024-02-23T11:39:50;5.77;;;3.33;;
10471;SDS011;5283;48.876;8.962;2024-02-23T11:42:17;3.97;;;1.90;;
10471;SDS011;5283;48.876;8.962;2024-02-23T11:44:44;3.87;;;1.20;;
10471;SDS011;5283;48.876;8.962;2024-02-23T11:47:11;3.07;;;1.30;;
10471;SDS011;5283;48.876;8.962;2024-02-23T11:49:38;2.70;;;1.20;;
10471;SDS011;5283;48.876;8.962;2024-02-23T11:52:04;3.63;;;1.17;;
10471;SDS011;5283;48.876;8.962;2024-02-23T11:54:32;7.03;;;3.70;;
10471;SDS011;5283;48.876;8.962;2024-02-23T11:56:59;5.30;;;2.60;;
10471;SDS011;5283;48.876;8.962;2024-02-23T11:59:26;3.23;;;1.53;;
10471;SDS011;5283;48.876;8.962;2024-02-23T12:01:53;2.60;;;0.93;;
10471;SDS011;5283;48.876;8.962;2024-02-23T12:04:20;3.33;;;1.10;;
10471;SDS011;5283;48.876;8.962;2024-02-23T12:06:47;6.03;;;1.57;;
10471;SDS011;5283;48.876;8.962;2024-02-23T12:09:14;4.20;;;1.40;;
10471;SDS011;5283;48.876;8.962;2024-02-23T12:11:41;5.53;;;1.43;;
10471;SDS011;5283;48.876;8.962;2024-02-23T12:14:08;4.00;;;1.10;;
10471;SDS011;5283;48.876;8.962;2024-02-23T12:16:35;3.40;;;0.97;;
10471;SDS011;5283;48.876;8.962;2024-02-23T12:19:02;3.43;;;1.17;;
10471;SDS011;5283;48.876;8.962;2024-02-23T12:21:29;4.33;;;1.53;;
10471;SDS011;5283;48.876;8.962;2024-02-23T12:23:56;3.20;;;1.20;;
10471;SDS011;5283;48.876;8.962;2024-02-23T12:26:23;2.73;;;1.00;;
10471;SDS011;5283;48.876;8.962;2024-02-23T12:28:50;5.67;;;2.17;;
10471;SDS011;5283;48.876;8.962;2024-02-23T12:31:16;7.43;;;4.33;;
10471;SDS011;5283;48.876;8.962;2024-02-23T12:33:51;8.87;;;6.03;;
10471;SDS011;5283;48.876;8.962;2024-02-23T12:36:18;4.00;;;1.27;;
10471;SDS011;5283;48.876;8.962;2024-02-23T12:38:45;6.27;;;1.20;;
10471;SDS011;5283;48.876;8.962;2024-02-23T12:41:11;5.27;;;1.30;;
10471;SDS011;5283;48.876;8.962;2024-02-23T12:43:38;5.37;;;1.63;;
10471;SDS011;5283;48.876;8.962;2024-02-23T12:46:06;5.67;;;1.60;;
10471;SDS011;5283;48.876;8.962;2024-02-23T12:48:35;2.73;;;1.30;;
10471;SDS011;5283;48.876;8.962;2024-02-23T12:51:02;3.27;;;1.10;;
10471;SDS011;5283;48.876;8.962;2024-02-23T12:53:35;8.77;;;2.20;;
10471;SDS011;5283;48.876;8.962;2024-02-23T12:56:04;4.00;;;1.50;;
10471;SDS011;5283;48.876;8.962;2024-02-23T12:58:36;3.90;;;1.10;;
10471;SDS011;5283;48.876;8.962;2024-02-23T13:01:05;2.93;;;1.30;;
10471;SDS011;5283;48.876;8.962;2024-02-23T13:03:33;5.03;;;1.43;;
10471;SDS011;5283;48.876;8.962;2024-02-23T13:06:01;2.93;;;1.10;;
10471;SDS011;5283;48.876;8.962;2024-02-23T13:08:28;4.07;;;1.33;;
10471;SDS011;5283;48.876;8.962;2024-02-23T13:10:55;2.20;;;1.07;;
10471;SDS011;5283;48.876;8.962;2024-02-23T13:13:23;5.03;;;1.23;;
10471;SDS011;5283;48.876;8.962;2024-02-23T13:15:51;3.03;;;1.10;;
10471;SDS011;5283;48.876;8.962;2024-02-23T13:18:19;7.63;;;1.40;;
10471;SDS011;5283;48.876;8.962;2024-02-23T13:20:46;5.40;;;1.20;;
10471;SDS011;5283;48.876;8.962;2024-02-23T13:23:13;4.07;;;1.00;;
10471;SDS011;5283;48.876;8.962;2024-02-23T13:25:42;3.60;;;1.20;;
10471;SDS011;5283;48.876;8.962;2024-02-23T13:28:09;7.13;;;2.97;;
10471;SDS011;5283;48.876;8.962;2024-02-23T13:30:36;4.23;;;1.83;;
10471;SDS011;5283;48.876;8.962;2024-02-23T13:33:03;5.07;;;2.23;;
10471;SDS011;5283;48.876;8.962;2024-02-23T13:35:31;4.13;;;1.10;;
10471;SDS011;5283;48.876;8.962;2024-02-23T13:37:58;5.93;;;0.93;;
10471;SDS011;5283;48.876;8.962;2024-02-23T13:40:25;4.43;;;1.67;;
10471;SDS011;5283;48.876;8.962;2024-02-23T13:42:52;3.07;;;1.57;;
10471;SDS011;5283;48.876;8.962;2024-02-23T13:45:19;4.60;;;1.20;;
10471;SDS011;5283;48.876;8.962;2024-02-23T13:48:02;3.80;;;1.07;;
10471;SDS011;5283;48.876;8.962;2024-02-23T13:50:31;6.80;;;1.83;;
10471;SDS011;5283;48.876;8.962;2024-02-23T13:52:59;3.90;;;1.27;;
10471;SDS011;5283;48.876;8.962;2024-02-23T13:55:26;5.20;;;1.50;;
10471;SDS011;5283;48.876;8.962;2024-02-23T13:57:52;3.40;;;1.07;;
10471;SDS011;5283;48.876;8.962;2024-02-23T14:00:19;4.23;;;1.30;;
10471;SDS011;5283;48.876;8.962;2024-02-23T14:02:46;4.00;;;1.23;;
10471;SDS011;5283;48.876;8.962;2024-02-23T14:05:13;2.47;;;1.07;;
10471;SDS011;5283;48.876;8.962;2024-02-23T14:07:41;3.50;;;1.93;;
10471;SDS011;5283;48.876;8.962;2024-02-23T14:10:08;9.97;;;1.87;;
10471;SDS011;5283;48.876;8.962;2024-02-23T14:12:35;3.17;;;1.00;;
10471;SDS011;5283;48.876;8.962;2024-02-23T14:15:02;5.43;;;1.53;;
10471;SDS011;5283;48.876;8.962;2024-02-23T14:17:32;2.80;;;1.50;;
10471;SDS011;5283;48.876;8.962;2024-02-23T14:20:00;3.23;;;1.37;;
10471;SDS011;5283;48.876;8.962;2024-02-23T14:22:27;4.60;;;1.40;;
10471;SDS011;5283;48.876;8.962;2024-02-23T14:24:54;4.87;;;1.73;;
10471;SDS011;5283;48.876;8.962;2024-02-23T14:27:21;1.47;;;0.70;;
10471;SDS011;5283;48.876;8.962;2024-02-23T14:29:48;3.60;;;1.30;;
10471;SDS011;5283;48.876;8.962;2024-02-23T14:32:16;2.80;;;1.27;;
10471;SDS011;5283;48.876;8.962;2024-02-23T14:34:43;5.43;;;1.33;;
10471;SDS011;5283;48.876;8.962;2024-02-23T14:37:12;5.63;;;1.37;;
10471;SDS011;5283;48.876;8.962;2024-02-23T14:39:38;3.43;;;1.50;;
10471;SDS011;5283;48.876;8.962;2024-02-23T14:42:05;4.73;;;1.47;;
10471;SDS011;5283;48.876;8.962;2024-02-23T14:44:35;1.93;;;1.23;;
10471;SDS011;5283;48.876;8.962;2024-02-23T14:47:02;4.40;;;1.30;;
10471;SDS011;5283;48.876;8.962;2024-02-23T14:49:32;4.33;;;1.30;;
10471;SDS011;5283;48.876;8.962;2024-02-23T14:51:59;4.27;;;1.20;;
10471;SDS011;5283;48.876;8.962;2024-02-23T14:54:26;4.67;;;1.53;;
10471;SDS011;5283;48.876;8.962;2024-02-23T14:56:53;8.87;;;3.70;;
10471;SDS011;5283;48.876;8.962;2024-02-23T14:59:21;6.90;;;2.97;;
10471;SDS011;5283;48.876;8.962;2024-02-23T15:01:48;5.60;;;1.67;;